KBIL/BIL METAR and TAF weather

Enter ICAO airport designator
Station Type Date Time Source
KBIL METAR 2019/04/19 21:53 UTC NOAA

KBIL 192153Z 26011KT 10SM FEW060 FEW090 SCT200 27/02 A2984 RMK AO2 PK WND 30026/2105 SLP078 T02720017


Station Type Date Time Source
KBIL Decoded METAR 2019/04/19 21:53 UTC NOAA

LOGAN INTERNATIONAL AIRPORT, MT, United States (KBIL) 45-49N 108-33W 1091M
Apr 19, 2019 - 05:53 PM EDT / 2019.04.19 2153 UTC
Wind: from the W (260 degrees) at 13 MPH (11 KT):0
Visibility: 10 mile(s):0
Sky conditions: partly cloudy
Temperature: 81.0 F (27.2 C)
Dew Point: 35.1 F (1.7 C)
Relative Humidity: 19%
Pressure (altimeter): 29.84 in. Hg (1010 hPa)
ob: KBIL 192153Z 26011KT 10SM FEW060 FEW090 SCT200 27/02 A2984 RMK AO2 PK WND 30026/2105 SLP078 T02720017
cycle: 22

Station Type Date Time Source
KBIL TAF 2019/04/19 18:30 UTC NOAA

TAF KBIL 191727Z 1918/2018 25014G22KT P6SM FEW090 SCT150
FM200200 26011KT P6SM BKN200
FM201500 02010KT P6SM VCSH SCT050 BKN100

Example: see airport list